sensor_id;sensor_type;location;lat;lon;timestamp;pressure;altitude;pressure_sealevel;temperature;humidity
13015;BME280;6573;57.696;11.950;2023-02-19T00:00:21;100894.13;;;5.80;100.00
13015;BME280;6573;57.696;11.950;2023-02-19T00:02:51;100881.09;;;5.83;100.00
13015;BME280;6573;57.696;11.950;2023-02-19T00:05:19;100872.38;;;5.81;100.00
13015;BME280;6573;57.696;11.950;2023-02-19T00:07:47;100893.25;;;5.81;100.00
13015;BME280;6573;57.696;11.950;2023-02-19T00:10:16;100889.91;;;5.85;100.00
13015;BME280;6573;57.696;11.950;2023-02-19T00:12:44;100898.44;;;5.78;100.00
13015;BME280;6573;57.696;11.950;2023-02-19T00:15:12;100889.75;;;5.79;100.00
13015;BME280;6573;57.696;11.950;2023-02-19T00:17:41;100891.53;;;5.83;100.00
13015;BME280;6573;57.696;11.950;2023-02-19T00:20:10;100899.38;;;5.83;100.00
13015;BME280;6573;57.696;11.950;2023-02-19T00:22:40;100898.69;;;5.90;100.00
13015;BME280;6573;57.696;11.950;2023-02-19T00:25:08;100892.59;;;5.91;100.00
13015;BME280;6573;57.696;11.950;2023-02-19T00:27:36;100888.25;;;5.90;100.00
13015;BME280;6573;57.696;11.950;2023-02-19T00:30:05;100897.63;;;5.83;100.00
13015;BME280;6573;57.696;11.950;2023-02-19T00:32:33;100900.19;;;5.79;100.00
13015;BME280;6573;57.696;11.950;2023-02-19T00:35:01;100893.25;;;5.81;100.00
13015;BME280;6573;57.696;11.950;2023-02-19T00:37:31;100898.44;;;5.78;100.00
13015;BME280;6573;57.696;11.950;2023-02-19T00:40:00;100894.75;;;5.67;100.00
13015;BME280;6573;57.696;11.950;2023-02-19T00:42:28;100882.38;;;5.57;100.00
13015;BME280;6573;57.696;11.950;2023-02-19T00:44:57;100901.75;;;5.71;100.00
13015;BME280;6573;57.696;11.950;2023-02-19T00:47:25;100900.03;;;5.70;100.00
13015;BME280;6573;57.696;11.950;2023-02-19T00:49:53;100902.72;;;5.76;100.00
13015;BME280;6573;57.696;11.950;2023-02-19T00:52:22;100901.00;;;5.76;100.00
13015;BME280;6573;57.696;11.950;2023-02-19T00:54:51;100900.09;;;5.73;100.00
13015;BME280;6573;57.696;11.950;2023-02-19T00:57:20;100893.03;;;5.69;100.00
13015;BME280;6573;57.696;11.950;2023-02-19T00:59:48;100885.88;;;5.59;100.00
13015;BME280;6573;57.696;11.950;2023-02-19T01:02:16;100913.75;;;5.60;100.00
13015;BME280;6573;57.696;11.950;2023-02-19T01:04:45;100891.03;;;5.56;100.00
13015;BME280;6573;57.696;11.950;2023-02-19T01:07:14;100906.81;;;5.62;100.00
13015;BME280;6573;57.696;11.950;2023-02-19T01:09:42;100912.19;;;5.68;100.00
13015;BME280;6573;57.696;11.950;2023-02-19T01:12:12;100901.59;;;5.62;100.00
13015;BME280;6573;57.696;11.950;2023-02-19T01:14:40;100912.09;;;5.65;100.00
13015;BME280;6573;57.696;11.950;2023-02-19T01:17:08;100898.03;;;5.57;100.00
13015;BME280;6573;57.696;11.950;2023-02-19T01:19:37;100899.69;;;5.52;100.00
13015;BME280;6573;57.696;11.950;2023-02-19T01:22:06;100897.88;;;5.48;100.00
13015;BME280;6573;57.696;11.950;2023-02-19T01:24:34;100908.34;;;5.51;100.00
13015;BME280;6573;57.696;11.950;2023-02-19T01:27:02;100906.53;;;5.47;100.00
13015;BME280;6573;57.696;11.950;2023-02-19T01:29:32;100889.19;;;5.49;100.00
13015;BME280;6573;57.696;11.950;2023-02-19T01:32:00;100905.84;;;5.55;100.00
13015;BME280;6573;57.696;11.950;2023-02-19T01:34:29;100908.47;;;5.57;100.00
13015;BME280;6573;57.696;11.950;2023-02-19T01:36:59;100906.59;;;5.48;100.00
13015;BME280;6573;57.696;11.950;2023-02-19T01:39:27;100896.03;;;5.44;100.00
13015;BME280;6573;57.696;11.950;2023-02-19T01:41:55;100911.69;;;5.44;100.00
13015;BME280;6573;57.696;11.950;2023-02-19T01:47:31;100928.16;;;5.40;100.00
13015;BME280;6573;57.696;11.950;2023-02-19T01:49:59;100920.31;;;5.40;100.00
13015;BME280;6573;57.696;11.950;2023-02-19T01:52:29;100906.44;;;5.41;100.00
13015;BME280;6573;57.696;11.950;2023-02-19T01:55:00;100899.22;;;5.28;100.00
13015;BME280;6573;57.696;11.950;2023-02-19T01:57:32;100915.03;;;5.37;100.00
13015;BME280;6573;57.696;11.950;2023-02-19T02:00:03;100920.91;;;5.25;100.00
13015;BME280;6573;57.696;11.950;2023-02-19T02:02:34;100921.78;;;5.26;100.00
13015;BME280;6573;57.696;11.950;2023-02-19T02:05:03;100925.28;;;5.28;100.00
13015;BME280;6573;57.696;11.950;2023-02-19T02:07:34;100913.00;;;5.20;100.00
13015;BME280;6573;57.696;11.950;2023-02-19T02:10:20;100895.47;;;5.13;100.00
13015;BME280;6573;57.696;11.950;2023-02-19T02:12:50;100916.81;;;5.38;100.00
13015;BME280;6573;57.696;11.950;2023-02-19T02:15:18;100917.53;;;5.31;100.00
13015;BME280;6573;57.696;11.950;2023-02-19T02:17:53;100930.00;;;5.03;100.00
13015;BME280;6573;57.696;11.950;2023-02-19T02:20:32;100921.31;;;5.04;100.00
13015;BME280;6573;57.696;11.950;2023-02-19T02:23:08;100936.91;;;5.01;100.00
13015;BME280;6573;57.696;11.950;2023-02-19T02:26:08;100928.06;;;4.93;100.00
13015;BME280;6573;57.696;11.950;2023-02-19T02:31:53;100947.41;;;5.04;100.00
13015;BME280;6573;57.696;11.950;2023-02-19T02:34:27;100942.25;;;5.07;100.00
13015;BME280;6573;57.696;11.950;2023-02-19T02:36:57;100944.13;;;5.14;100.00
13015;BME280;6573;57.696;11.950;2023-02-19T02:39:27;100947.28;;;4.98;100.00
13015;BME280;6573;57.696;11.950;2023-02-19T02:41:58;100930.50;;;4.87;100.00
13015;BME280;6573;57.696;11.950;2023-02-19T02:44:43;100954.16;;;4.96;100.00
13015;BME280;6573;57.696;11.950;2023-02-19T02:47:36;100952.50;;;4.98;100.00
13015;BME280;6573;57.696;11.950;2023-02-19T02:50:13;100948.50;;;4.75;100.00
13015;BME280;6573;57.696;11.950;2023-02-19T02:52:44;100944.81;;;4.67;100.00
13015;BME280;6573;57.696;11.950;2023-02-19T02:55:36;100962.22;;;4.68;100.00
13015;BME280;6573;57.696;11.950;2023-02-19T02:58:07;100910.94;;;4.30;100.00
13015;BME280;6573;57.696;11.950;2023-02-19T03:00:37;100966.72;;;4.75;100.00
13015;BME280;6573;57.696;11.950;2023-02-19T03:03:27;100969.41;;;4.78;100.00
13015;BME280;6573;57.696;11.950;2023-02-19T03:06:02;100956.06;;;4.65;100.00
13015;BME280;6573;57.696;11.950;2023-02-19T03:08:35;100966.56;;;4.69;100.00
13015;BME280;6573;57.696;11.950;2023-02-19T03:11:07;100979.97;;;4.84;100.00
13015;BME280;6573;57.696;11.950;2023-02-19T03:13:56;100981.00;;;4.91;100.00
13015;BME280;6573;57.696;11.950;2023-02-19T03:16:47;100985.31;;;4.90;100.00
13015;BME280;6573;57.696;11.950;2023-02-19T03:19:39;100971.31;;;4.87;100.00
13015;BME280;6573;57.696;11.950;2023-02-19T03:22:12;100988.91;;;4.95;100.00
13015;BME280;6573;57.696;11.950;2023-02-19T03:24:46;100990.63;;;4.93;100.00
13015;BME280;6573;57.696;11.950;2023-02-19T03:27:35;101002.94;;;5.00;100.00
13015;BME280;6573;57.696;11.950;2023-02-19T03:30:09;101002.94;;;5.00;100.00
13015;BME280;6573;57.696;11.950;2023-02-19T03:32:43;100973.13;;;4.89;100.00
13015;BME280;6573;57.696;11.950;2023-02-19T03:35:16;101001.38;;;5.08;100.00
13015;BME280;6573;57.696;11.950;2023-02-19T03:37:51;101006.28;;;4.96;100.00
13015;BME280;6573;57.696;11.950;2023-02-19T03:40:23;101002.69;;;4.91;100.00
13015;BME280;6573;57.696;11.950;2023-02-19T03:42:57;100999.06;;;4.83;100.00
13015;BME280;6573;57.696;11.950;2023-02-19T03:45:33;100968.69;;;4.48;100.00
13015;BME280;6573;57.696;11.950;2023-02-19T03:48:22;100977.88;;;4.68;100.00
13015;BME280;6573;57.696;11.950;2023-02-19T03:51:01;100998.69;;;4.68;100.00
13015;BME280;6573;57.696;11.950;2023-02-19T03:53:35;101020.03;;;4.89;100.00
13015;BME280;6573;57.696;11.950;2023-02-19T03:56:09;101019.28;;;4.93;100.00
13015;BME280;6573;57.696;11.950;2023-02-19T03:58:43;101017.75;;;5.03;100.00
13015;BME280;6573;57.696;11.950;2023-02-19T04:01:18;101026.22;;;4.93;100.00
13015;BME280;6573;57.696;11.950;2023-02-19T04:03:51;101000.53;;;4.72;100.00
13015;BME280;6573;57.696;11.950;2023-02-19T04:06:26;100981.09;;;4.58;100.00
13015;BME280;6573;57.696;11.950;2023-02-19T04:08:57;101019.31;;;4.59;100.00
13015;BME280;6573;57.696;11.950;2023-02-19T04:11:27;101026.38;;;4.63;100.00
13015;BME280;6573;57.696;11.950;2023-02-19T04:14:00;101025.56;;;4.66;100.00
13015;BME280;6573;57.696;11.950;2023-02-19T04:16:33;101015.88;;;4.60;100.00
13015;BME280;6573;57.696;11.950;2023-02-19T04:19:06;101035.09;;;4.65;100.00
13015;BME280;6573;57.696;11.950;2023-02-19T04:21:38;101026.50;;;4.69;100.00
13015;BME280;6573;57.696;11.950;2023-02-19T04:24:11;101047.72;;;4.84;100.00
13015;BME280;6573;57.696;11.950;2023-02-19T04:26:41;101041.41;;;4.75;100.00
13015;BME280;6573;57.696;11.950;2023-02-19T04:29:11;101040.75;;;4.83;100.00
13015;BME280;6573;57.696;11.950;2023-02-19T04:31:41;101046.34;;;4.98;100.00
13015;BME280;6573;57.696;11.950;2023-02-19T04:34:10;101054.53;;;4.79;100.00
13015;BME280;6573;57.696;11.950;2023-02-19T04:36:40;101069.00;;;4.67;100.00
13015;BME280;6573;57.696;11.950;2023-02-19T04:39:08;101068.28;;;4.72;100.00
13015;BME280;6573;57.696;11.950;2023-02-19T04:41:36;101061.06;;;4.62;100.00
13015;BME280;6573;57.696;11.950;2023-02-19T04:44:04;101070.06;;;4.73;100.00
13015;BME280;6573;57.696;11.950;2023-02-19T04:46:33;101052.25;;;4.57;100.00
13015;BME280;6573;57.696;11.950;2023-02-19T04:49:02;101075.78;;;4.60;100.00
13015;BME280;6573;57.696;11.950;2023-02-19T04:51:30;101052.44;;;4.63;100.00
13015;BME280;6573;57.696;11.950;2023-02-19T04:54:00;101081.34;;;4.74;100.00
13015;BME280;6573;57.696;11.950;2023-02-19T04:56:29;101073.41;;;4.69;100.00
13015;BME280;6573;57.696;11.950;2023-02-19T04:58:57;101087.00;;;4.56;100.00
13015;BME280;6573;57.696;11.950;2023-02-19T05:01:25;101080.47;;;4.73;100.00
13015;BME280;6573;57.696;11.950;2023-02-19T05:03:54;101085.38;;;4.61;100.00
13015;BME280;6573;57.696;11.950;2023-02-19T05:06:22;101094.25;;;4.69;100.00
13015;BME280;6573;57.696;11.950;2023-02-19T05:08:51;101098.59;;;4.69;100.00
13015;BME280;6573;57.696;11.950;2023-02-19T05:11:20;101100.84;;;4.55;100.00
13015;BME280;6573;57.696;11.950;2023-02-19T05:13:49;101100.22;;;4.65;100.00
13015;BME280;6573;57.696;11.950;2023-02-19T05:16:18;101083.22;;;4.45;100.00
13015;BME280;6573;57.696;11.950;2023-02-19T05:18:46;101088.53;;;4.49;100.00
13015;BME280;6573;57.696;11.950;2023-02-19T05:21:15;101109.75;;;4.63;100.00
13015;BME280;6573;57.696;11.950;2023-02-19T05:23:43;101108.13;;;4.68;100.00
13015;BME280;6573;57.696;11.950;2023-02-19T05:26:14;101101.22;;;4.70;100.00
13015;BME280;6573;57.696;11.950;2023-02-19T05:28:46;101104.63;;;4.66;100.00
13015;BME280;6573;57.696;11.950;2023-02-19T05:31:14;101104.53;;;4.63;100.00
13015;BME280;6573;57.696;11.950;2023-02-19T05:33:43;101112.34;;;4.63;100.00
13015;BME280;6573;57.696;11.950;2023-02-19T05:36:17;101123.84;;;4.71;100.00
13015;BME280;6573;57.696;11.950;2023-02-19T05:38:46;101120.38;;;4.72;100.00
13015;BME280;6573;57.696;11.950;2023-02-19T05:41:16;101116.78;;;4.67;100.00
13015;BME280;6573;57.696;11.950;2023-02-19T05:43:47;101082.00;;;4.32;100.00
13015;BME280;6573;57.696;11.950;2023-02-19T05:46:18;101119.34;;;4.33;100.00
13015;BME280;6573;57.696;11.950;2023-02-19T05:48:48;101133.63;;;4.47;100.00
13015;BME280;6573;57.696;11.950;2023-02-19T05:51:18;101141.50;;;4.48;100.00
13015;BME280;6573;57.696;11.950;2023-02-19T05:53:48;101151.13;;;4.51;100.00
13015;BME280;6573;57.696;11.950;2023-02-19T05:56:24;101145.22;;;4.58;100.00
13015;BME280;6573;57.696;11.950;2023-02-19T05:58:55;101128.56;;;4.51;100.00
13015;BME280;6573;57.696;11.950;2023-02-19T06:01:26;101147.25;;;4.70;100.00
13015;BME280;6573;57.696;11.950;2023-02-19T06:03:55;101111.66;;;4.37;100.00
13015;BME280;6573;57.696;11.950;2023-02-19T06:06:24;101164.19;;;4.54;100.00
13015;BME280;6573;57.696;11.950;2023-02-19T06:08:53;101143.97;;;4.44;100.00
13015;BME280;6573;57.696;11.950;2023-02-19T06:11:23;101152.94;;;4.55;100.00
13015;BME280;6573;57.696;11.950;2023-02-19T06:13:51;101146.41;;;4.38;100.00
13015;BME280;6573;57.696;11.950;2023-02-19T06:16:21;101154.63;;;4.53;100.00
13015;BME280;6573;57.696;11.950;2023-02-19T06:18:49;101134.97;;;4.33;100.00
13015;BME280;6573;57.696;11.950;2023-02-19T06:21:18;101170.25;;;4.53;100.00
13015;BME280;6573;57.696;11.950;2023-02-19T06:23:46;101167.69;;;4.54;100.00
13015;BME280;6573;57.696;11.950;2023-02-19T06:26:18;101179.19;;;4.61;100.00
13015;BME280;6573;57.696;11.950;2023-02-19T06:28:48;101173.63;;;4.49;100.00
13015;BME280;6573;57.696;11.950;2023-02-19T06:31:18;101170.22;;;4.84;100.00
13015;BME280;6573;57.696;11.950;2023-02-19T06:33:48;101146.94;;;4.90;100.00
13015;BME280;6573;57.696;11.950;2023-02-19T06:36:19;101185.84;;;5.18;100.00
13015;BME280;6573;57.696;11.950;2023-02-19T06:38:48;101186.94;;;5.27;100.00
13015;BME280;6573;57.696;11.950;2023-02-19T06:41:17;101184.19;;;5.20;100.00
13015;BME280;6573;57.696;11.950;2023-02-19T06:43:46;101184.13;;;5.17;100.00
13015;BME280;6573;57.696;11.950;2023-02-19T06:46:14;101190.41;;;5.26;100.00
13015;BME280;6573;57.696;11.950;2023-02-19T06:48:44;101186.09;;;5.28;100.00
13015;BME280;6573;57.696;11.950;2023-02-19T06:51:16;101178.22;;;5.26;100.00
13015;BME280;6573;57.696;11.950;2023-02-19T06:53:49;101184.13;;;5.17;100.00
13015;BME280;6573;57.696;11.950;2023-02-19T06:56:23;101187.72;;;5.22;100.00
13015;BME280;6573;57.696;11.950;2023-02-19T06:58:52;101198.16;;;5.22;100.00
13015;BME280;6573;57.696;11.950;2023-02-19T07:01:22;101199.88;;;5.23;100.00
13015;BME280;6573;57.696;11.950;2023-02-19T07:03:50;101178.94;;;4.86;100.00
13015;BME280;6573;57.696;11.950;2023-02-19T07:06:22;101200.81;;;4.91;100.00
13015;BME280;6573;57.696;11.950;2023-02-19T07:08:52;101194.84;;;4.95;100.00
13015;BME280;6573;57.696;11.950;2023-02-19T07:11:22;101197.59;;;5.01;100.00
13015;BME280;6573;57.696;11.950;2023-02-19T07:13:53;101200.66;;;4.85;100.00
13015;BME280;6573;57.696;11.950;2023-02-19T07:16:22;101213.44;;;4.45;100.00
13015;BME280;6573;57.696;11.950;2023-02-19T07:18:51;101178.31;;;4.31;100.00
13015;BME280;6573;57.696;11.950;2023-02-19T07:21:21;101222.69;;;4.65;100.00
13015;BME280;6573;57.696;11.950;2023-02-19T07:23:49;101219.91;;;4.59;100.00
13015;BME280;6573;57.696;11.950;2023-02-19T07:26:19;101204.13;;;4.53;100.00
13015;BME280;6573;57.696;11.950;2023-02-19T07:28:49;101221.69;;;4.60;100.00
13015;BME280;6573;57.696;11.950;2023-02-19T07:31:19;101229.59;;;4.63;100.00
13015;BME280;6573;57.696;11.950;2023-02-19T07:33:48;101212.47;;;4.73;100.00
13015;BME280;6573;57.696;11.950;2023-02-19T07:36:17;101221.09;;;4.70;100.00
13015;BME280;6573;57.696;11.950;2023-02-19T07:38:52;101233.34;;;4.74;100.00
13015;BME280;6573;57.696;11.950;2023-02-19T07:41:22;101237.16;;;4.85;100.00
13015;BME280;6573;57.696;11.950;2023-02-19T07:43:52;101240.53;;;4.81;100.00
13015;BME280;6573;57.696;11.950;2023-02-19T07:46:21;101227.03;;;4.97;100.00
13015;BME280;6573;57.696;11.950;2023-02-19T07:48:49;101225.66;;;5.11;100.00
13015;BME280;6573;57.696;11.950;2023-02-19T07:51:18;101220.53;;;5.14;100.00
13015;BME280;6573;57.696;11.950;2023-02-19T07:53:48;101218.94;;;5.19;100.00
13015;BME280;6573;57.696;11.950;2023-02-19T07:56:18;101222.63;;;5.28;100.00
13015;BME280;6573;57.696;11.950;2023-02-19T07:58:46;101214.53;;;5.18;100.00
13015;BME280;6573;57.696;11.950;2023-02-19T08:01:20;101241.06;;;5.35;100.00
13015;BME280;6573;57.696;11.950;2023-02-19T08:04:12;101247.63;;;5.19;100.00
13015;BME280;6573;57.696;11.950;2023-02-19T08:06:40;101255.59;;;5.26;100.00
13015;BME280;6573;57.696;11.950;2023-02-19T08:09:11;101232.66;;;5.12;100.00
13015;BME280;6573;57.696;11.950;2023-02-19T08:11:40;101259.25;;;5.34;100.00
13015;BME280;6573;57.696;11.950;2023-02-19T08:14:26;101252.06;;;5.23;100.00
13015;BME280;6573;57.696;11.950;2023-02-19T08:16:55;101224.13;;;5.19;100.00
13015;BME280;6573;57.696;11.950;2023-02-19T08:19:23;101254.38;;;5.46;100.00
13015;BME280;6573;57.696;11.950;2023-02-19T08:21:52;101253.25;;;5.36;100.00
13015;BME280;6573;57.696;11.950;2023-02-19T08:24:22;101262.81;;;5.36;100.00
13015;BME280;6573;57.696;11.950;2023-02-19T08:26:51;101203.75;;;5.03;100.00
13015;BME280;6573;57.696;11.950;2023-02-19T08:29:19;101268.19;;;5.42;100.00
13015;BME280;6573;57.696;11.950;2023-02-19T08:31:48;101263.03;;;5.45;100.00
13015;BME280;6573;57.696;11.950;2023-02-19T08:34:16;101266.56;;;5.47;100.00
13015;BME280;6573;57.696;11.950;2023-02-19T08:36:45;101277.00;;;5.47;100.00
13015;BME280;6573;57.696;11.950;2023-02-19T08:39:14;101275.47;;;5.55;100.00
13015;BME280;6573;57.696;11.950;2023-02-19T08:41:47;101284.13;;;5.54;100.00
13015;BME280;6573;57.696;11.950;2023-02-19T08:44:16;101277.53;;;5.68;100.00
13015;BME280;6573;57.696;11.950;2023-02-19T08:46:46;101277.53;;;5.68;100.00
13015;BME280;6573;57.696;11.950;2023-02-19T08:49:15;101283.06;;;5.80;100.00
13015;BME280;6573;57.696;11.950;2023-02-19T08:51:44;101281.34;;;5.82;100.00
13015;BME280;6573;57.696;11.950;2023-02-19T08:54:12;101288.53;;;5.91;100.00
13015;BME280;6573;57.696;11.950;2023-02-19T08:56:41;101290.28;;;5.90;100.00
13015;BME280;6573;57.696;11.950;2023-02-19T08:59:11;101296.53;;;5.97;100.00
13015;BME280;6573;57.696;11.950;2023-02-19T09:01:39;101281.94;;;6.06;100.00
13015;BME280;6573;57.696;11.950;2023-02-19T09:04:09;101297.69;;;6.09;100.00
13015;BME280;6573;57.696;11.950;2023-02-19T09:06:39;101293.25;;;6.05;100.00
13015;BME280;6573;57.696;11.950;2023-02-19T09:09:07;101295.56;;;5.93;100.00
13015;BME280;6573;57.696;11.950;2023-02-19T09:11:37;101295.88;;;6.05;100.00
13015;BME280;6573;57.696;11.950;2023-02-19T09:14:06;101288.88;;;6.04;100.00
13015;BME280;6573;57.696;11.950;2023-02-19T09:16:36;101295.91;;;6.08;100.00
13015;BME280;6573;57.696;11.950;2023-02-19T09:19:04;101280.25;;;6.08;100.00
13015;BME280;6573;57.696;11.950;2023-02-19T09:21:32;101299.75;;;6.22;100.00
13015;BME280;6573;57.696;11.950;2023-02-19T09:24:00;101305.63;;;6.14;100.00
13015;BME280;6573;57.696;11.950;2023-02-19T09:26:28;101307.44;;;6.16;100.00
13015;BME280;6573;57.696;11.950;2023-02-19T09:28:57;101304.75;;;6.13;100.00
13015;BME280;6573;57.696;11.950;2023-02-19T09:31:25;101306.72;;;6.23;100.00
13015;BME280;6573;57.696;11.950;2023-02-19T09:33:54;101315.53;;;6.28;100.00
13015;BME280;6573;57.696;11.950;2023-02-19T09:36:23;101317.44;;;6.35;100.00
13015;BME280;6573;57.696;11.950;2023-02-19T09:38:52;101310.38;;;6.31;100.00
13015;BME280;6573;57.696;11.950;2023-02-19T09:41:24;101308.63;;;6.30;100.00
13015;BME280;6573;57.696;11.950;2023-02-19T09:43:56;101268.63;;;5.96;100.00
13015;BME280;6573;57.696;11.950;2023-02-19T09:46:29;101314.00;;;6.36;100.00
13015;BME280;6573;57.696;11.950;2023-02-19T09:49:04;101316.59;;;6.35;100.00
13015;BME280;6573;57.696;11.950;2023-02-19T09:51:35;101321.25;;;6.49;100.00
13015;BME280;6573;57.696;11.950;2023-02-19T09:54:08;101320.53;;;6.57;100.00
13015;BME280;6573;57.696;11.950;2023-02-19T09:56:39;101310.72;;;6.46;100.00
13015;BME280;6573;57.696;11.950;2023-02-19T09:59:17;101327.06;;;6.38;100.00
13015;BME280;6573;57.696;11.950;2023-02-19T10:01:48;101338.75;;;7.40;100.00
13015;BME280;6573;57.696;11.950;2023-02-19T10:04:20;101305.84;;;8.65;100.00
13015;BME280;6573;57.696;11.950;2023-02-19T10:06:49;101327.69;;;9.41;99.88
13015;BME280;6573;57.696;11.950;2023-02-19T10:09:21;101333.56;;;9.19;98.68
13015;BME280;6573;57.696;11.950;2023-02-19T10:11:53;101345.75;;;8.46;100.00
13015;BME280;6573;57.696;11.950;2023-02-19T10:14:29;101332.91;;;8.06;100.00
13015;BME280;6573;57.696;11.950;2023-02-19T10:17:04;101341.63;;;8.05;100.00
13015;BME280;6573;57.696;11.950;2023-02-19T10:19:35;101338.75;;;7.90;100.00
13015;BME280;6573;57.696;11.950;2023-02-19T10:22:04;101345.34;;;8.79;100.00
13015;BME280;6573;57.696;11.950;2023-02-19T10:24:32;101334.72;;;9.42;98.82
13015;BME280;6573;57.696;11.950;2023-02-19T10:27:07;101326.88;;;8.68;99.98
13015;BME280;6573;57.696;11.950;2023-02-19T10:29:38;101350.56;;;8.19;100.00
13015;BME280;6573;57.696;11.950;2023-02-19T10:32:24;101347.50;;;7.92;100.00
13015;BME280;6573;57.696;11.950;2023-02-19T10:35:37;101339.41;;;7.76;100.00
13015;BME280;6573;57.696;11.950;2023-02-19T10:38:23;101348.19;;;7.78;100.00
13015;BME280;6573;57.696;11.950;2023-02-19T10:41:00;101342.88;;;7.75;100.00
13015;BME280;6573;57.696;11.950;2023-02-19T10:43:34;101339.63;;;7.89;100.00
13015;BME280;6573;57.696;11.950;2023-02-19T10:46:14;101351.84;;;7.90;100.00
13015;BME280;6573;57.696;11.950;2023-02-19T10:48:50;101346.06;;;7.56;100.00
13015;BME280;6573;57.696;11.950;2023-02-19T10:51:29;101340.56;;;7.44;100.00
13015;BME280;6573;57.696;11.950;2023-02-19T10:54:06;101346.16;;;7.62;100.00
13015;BME280;6573;57.696;11.950;2023-02-19T10:56:38;101331.31;;;7.61;100.00
13015;BME280;6573;57.696;11.950;2023-02-19T10:59:22;101341.03;;;7.68;100.00
13015;BME280;6573;57.696;11.950;2023-02-19T11:01:53;101352.59;;;7.81;100.00
13015;BME280;6573;57.696;11.950;2023-02-19T11:04:29;101346.06;;;7.56;100.00
13015;BME280;6573;57.696;11.950;2023-02-19T11:07:09;101350.03;;;7.86;100.00
13015;BME280;6573;57.696;11.950;2023-02-19T11:09:42;101342.88;;;7.75;100.00
13015;BME280;6573;57.696;11.950;2023-02-19T11:12:23;101344.50;;;7.67;100.00
13015;BME280;6573;57.696;11.950;2023-02-19T11:14:52;101343.78;;;7.77;100.00
13015;BME280;6573;57.696;11.950;2023-02-19T11:17:23;101336.78;;;7.76;100.00
13015;BME280;6573;57.696;11.950;2023-02-19T11:19:53;101337.66;;;7.75;100.00
13015;BME280;6573;57.696;11.950;2023-02-19T11:22:31;101326.16;;;7.67;100.00
13015;BME280;6573;57.696;11.950;2023-02-19T11:25:04;101328.69;;;7.61;100.00
13015;BME280;6573;57.696;11.950;2023-02-19T11:27:52;101348.06;;;7.72;100.00
13015;BME280;6573;57.696;11.950;2023-02-19T11:30:36;101295.72;;;7.25;100.00
13015;BME280;6573;57.696;11.950;2023-02-19T11:33:25;101339.03;;;7.55;100.00
13015;BME280;6573;57.696;11.950;2023-02-19T11:38:45;101347.78;;;7.57;100.00
13015;BME280;6573;57.696;11.950;2023-02-19T11:41:19;101351.09;;;7.47;100.00
13015;BME280;6573;57.696;11.950;2023-02-19T11:44:06;101347.72;;;7.54;100.00
13015;BME280;6573;57.696;11.950;2023-02-19T11:46:44;101348.53;;;7.50;100.00
13015;BME280;6573;57.696;11.950;2023-02-19T11:49:25;101359.41;;;7.25;100.00
13015;BME280;6573;57.696;11.950;2023-02-19T11:52:22;101342.19;;;7.36;100.00
13015;BME280;6573;57.696;11.950;2023-02-19T11:55:06;101347.13;;;7.21;100.00
13015;BME280;6573;57.696;11.950;2023-02-19T11:57:42;101338.31;;;7.17;100.00
13015;BME280;6573;57.696;11.950;2023-02-19T12:00:23;101338.66;;;6.89;100.00
13015;BME280;6573;57.696;11.950;2023-02-19T12:03:08;101335.25;;;6.93;100.00
13015;BME280;6573;57.696;11.950;2023-02-19T12:06:16;101339.22;;;6.75;100.00
13015;BME280;6573;57.696;11.950;2023-02-19T12:09:00;101323.81;;;6.90;100.00
13015;BME280;6573;57.696;11.950;2023-02-19T12:11:57;101322.16;;;6.92;100.00
13015;BME280;6573;57.696;11.950;2023-02-19T12:14:50;101306.97;;;7.19;100.00
13015;BME280;6573;57.696;11.950;2023-02-19T12:17:46;101308.41;;;7.02;100.00
13015;BME280;6573;57.696;11.950;2023-02-19T12:20:25;101310.31;;;7.12;100.00
13015;BME280;6573;57.696;11.950;2023-02-19T12:23:12;101310.38;;;7.15;100.00
13015;BME280;6573;57.696;11.950;2023-02-19T12:25:51;101318.56;;;7.32;100.00
13015;BME280;6573;57.696;11.950;2023-02-19T12:28:33;101280.75;;;7.16;100.00
13015;BME280;6573;57.696;11.950;2023-02-19T12:34:32;101282.94;;;6.95;100.00
13015;BME280;6573;57.696;11.950;2023-02-19T12:37:18;101300.72;;;7.11;100.00
13015;BME280;6573;57.696;11.950;2023-02-19T12:39:57;101302.72;;;7.24;100.00
13015;BME280;6573;57.696;11.950;2023-02-19T12:42:40;101305.03;;;7.09;100.00
13015;BME280;6573;57.696;11.950;2023-02-19T12:45:18;101306.75;;;7.07;100.00
13015;BME280;6573;57.696;11.950;2023-02-19T12:47:59;101303.19;;;7.05;100.00
13015;BME280;6573;57.696;11.950;2023-02-19T12:50:30;101282.25;;;7.02;100.00
13015;BME280;6573;57.696;11.950;2023-02-19T12:53:10;101280.84;;;7.22;100.00
13015;BME280;6573;57.696;11.950;2023-02-19T12:55:42;101277.66;;;7.38;100.00
13015;BME280;6573;57.696;11.950;2023-02-19T12:58:27;101277.75;;;7.44;100.00
13015;BME280;6573;57.696;11.950;2023-02-19T13:00:59;101270.84;;;7.49;100.00
13015;BME280;6573;57.696;11.950;2023-02-19T13:03:32;101267.47;;;7.53;100.00
13015;BME280;6573;57.696;11.950;2023-02-19T13:06:10;101262.22;;;7.53;100.00
13015;BME280;6573;57.696;11.950;2023-02-19T13:08:45;101247.78;;;7.27;100.00
13015;BME280;6573;57.696;11.950;2023-02-19T13:11:37;101246.59;;;7.08;100.00
13015;BME280;6573;57.696;11.950;2023-02-19T13:14:16;101226.28;;;6.94;100.00
13015;BME280;6573;57.696;11.950;2023-02-19T13:16:55;101234.91;;;6.90;100.00
13015;BME280;6573;57.696;11.950;2023-02-19T13:19:24;101237.13;;;7.15;100.00
13015;BME280;6573;57.696;11.950;2023-02-19T13:22:00;101231.25;;;7.27;100.00
13015;BME280;6573;57.696;11.950;2023-02-19T13:24:48;101237.31;;;7.24;100.00
13015;BME280;6573;57.696;11.950;2023-02-19T13:27:35;101235.72;;;7.35;100.00
13015;BME280;6573;57.696;11.950;2023-02-19T13:30:20;101227.19;;;7.45;100.00
13015;BME280;6573;57.696;11.950;2023-02-19T13:33:00;101234.44;;;7.61;100.00